sensor_id;sensor_type;location;lat;lon;timestamp;pressure;altitude;pressure_sealevel;temperature;humidity
52855;BME280;38719;51.418;7.286;2023-03-16T00:00:21;100124.59;;;5.52;51.78
52855;BME280;38719;51.418;7.286;2023-03-16T00:02:48;100131.44;;;5.61;51.63
52855;BME280;38719;51.418;7.286;2023-03-16T00:05:16;100115.72;;;5.55;51.89
52855;BME280;38719;51.418;7.286;2023-03-16T00:07:45;100120.91;;;5.59;51.84
52855;BME280;38719;51.418;7.286;2023-03-16T00:10:12;100124.59;;;5.52;51.84
52855;BME280;38719;51.418;7.286;2023-03-16T00:12:40;100125.00;;;5.32;52.20
52855;BME280;38719;51.418;7.286;2023-03-16T00:15:09;100110.94;;;5.31;52.51
52855;BME280;38719;51.418;7.286;2023-03-16T00:17:37;100106.50;;;5.32;52.74
52855;BME280;38719;51.418;7.286;2023-03-16T00:20:05;100118.81;;;5.33;52.62
52855;BME280;38719;51.418;7.286;2023-03-16T00:22:33;100117.16;;;5.29;52.77
52855;BME280;38719;51.418;7.286;2023-03-16T00:25:02;100113.44;;;5.38;53.05
52855;BME280;38719;51.418;7.286;2023-03-16T00:27:30;100115.34;;;5.31;52.67
52855;BME280;38719;51.418;7.286;2023-03-16T00:29:57;100113.59;;;5.30;53.32
52855;BME280;38719;51.418;7.286;2023-03-16T00:32:26;100119.69;;;5.33;53.03
52855;BME280;38719;51.418;7.286;2023-03-16T00:34:54;100118.41;;;5.52;52.91
52855;BME280;38719;51.418;7.286;2023-03-16T00:37:24;100111.38;;;5.51;52.99
52855;BME280;38719;51.418;7.286;2023-03-16T00:39:52;100114.22;;;5.43;53.37
52855;BME280;38719;51.418;7.286;2023-03-16T00:42:24;100108.78;;;5.49;53.25
52855;BME280;38719;51.418;7.286;2023-03-16T00:44:53;100111.59;;;5.41;53.37
52855;BME280;38719;51.418;7.286;2023-03-16T00:47:23;100119.44;;;5.46;53.40
52855;BME280;38719;51.418;7.286;2023-03-16T00:49:50;100115.53;;;5.22;54.21
52855;BME280;38719;51.418;7.286;2023-03-16T00:52:19;100118.13;;;5.25;53.86
52855;BME280;38719;51.418;7.286;2023-03-16T00:54:47;100123.53;;;5.17;54.53
52855;BME280;38719;51.418;7.286;2023-03-16T00:57:16;100117.22;;;5.24;54.03
52855;BME280;38719;51.418;7.286;2023-03-16T00:59:46;100104.94;;;5.23;53.90
52855;BME280;38719;51.418;7.286;2023-03-16T01:02:15;100107.44;;;5.29;53.68
52855;BME280;38719;51.418;7.286;2023-03-16T01:04:44;100101.31;;;5.29;54.27
52855;BME280;38719;51.418;7.286;2023-03-16T01:07:13;100098.03;;;5.18;54.47
52855;BME280;38719;51.418;7.286;2023-03-16T01:09:41;100120.19;;;5.09;54.41
52855;BME280;38719;51.418;7.286;2023-03-16T01:12:11;100129.59;;;5.22;54.14
52855;BME280;38719;51.418;7.286;2023-03-16T01:14:40;100120.69;;;5.28;54.07
52855;BME280;38719;51.418;7.286;2023-03-16T01:17:09;100124.16;;;5.30;53.71
52855;BME280;38719;51.418;7.286;2023-03-16T01:19:39;100103.03;;;5.30;54.20
52855;BME280;38719;51.418;7.286;2023-03-16T01:22:07;100102.31;;;5.22;53.71
52855;BME280;38719;51.418;7.286;2023-03-16T01:24:37;100099.91;;;5.11;54.47
52855;BME280;38719;51.418;7.286;2023-03-16T01:27:05;100088.34;;;5.16;54.35
52855;BME280;38719;51.418;7.286;2023-03-16T01:29:33;100091.03;;;5.15;54.00
52855;BME280;38719;51.418;7.286;2023-03-16T01:32:01;100084.13;;;5.08;54.00
52855;BME280;38719;51.418;7.286;2023-03-16T01:34:31;100085.75;;;5.13;53.84
52855;BME280;38719;51.418;7.286;2023-03-16T01:37:00;100074.13;;;5.22;54.04
52855;BME280;38719;51.418;7.286;2023-03-16T01:39:27;100081.16;;;5.25;53.44
52855;BME280;38719;51.418;7.286;2023-03-16T01:41:55;100077.63;;;5.24;53.45
52855;BME280;38719;51.418;7.286;2023-03-16T01:44:24;100075.91;;;5.22;53.59
52855;BME280;38719;51.418;7.286;2023-03-16T01:46:55;100065.44;;;5.19;53.51
52855;BME280;38719;51.418;7.286;2023-03-16T01:49:24;100055.78;;;5.18;53.56
52855;BME280;38719;51.418;7.286;2023-03-16T01:51:57;100052.28;;;5.15;53.44
52855;BME280;38719;51.418;7.286;2023-03-16T01:54:30;100043.63;;;5.09;53.67
52855;BME280;38719;51.418;7.286;2023-03-16T01:57:02;100040.88;;;5.15;53.21
52855;BME280;38719;51.418;7.286;2023-03-16T01:59:33;100036.53;;;5.12;53.13
52855;BME280;38719;51.418;7.286;2023-03-16T02:02:02;100035.72;;;5.09;53.32
52855;BME280;38719;51.418;7.286;2023-03-16T02:04:42;100043.97;;;4.92;53.75
52855;BME280;38719;51.418;7.286;2023-03-16T02:07:14;100041.94;;;5.06;53.52
52855;BME280;38719;51.418;7.286;2023-03-16T02:09:45;100042.06;;;5.00;53.26
52855;BME280;38719;51.418;7.286;2023-03-16T02:12:14;100035.84;;;5.03;53.08
52855;BME280;38719;51.418;7.286;2023-03-16T02:14:44;100036.53;;;5.12;52.66
52855;BME280;38719;51.418;7.286;2023-03-16T02:17:12;100023.41;;;5.08;52.96
52855;BME280;38719;51.418;7.286;2023-03-16T02:19:51;100024.22;;;5.11;52.90
52855;BME280;38719;51.418;7.286;2023-03-16T02:22:21;100024.94;;;5.18;52.81
52855;BME280;38719;51.418;7.286;2023-03-16T02:24:50;100013.53;;;5.18;52.36
52855;BME280;38719;51.418;7.286;2023-03-16T02:27:23;100006.56;;;5.15;51.81
52855;BME280;38719;51.418;7.286;2023-03-16T02:30:01;100008.25;;;5.18;52.04
52855;BME280;38719;51.418;7.286;2023-03-16T02:32:30;100008.16;;;5.21;51.97
52855;BME280;38719;51.418;7.286;2023-03-16T02:34:59;99992.41;;;5.18;51.95
52855;BME280;38719;51.418;7.286;2023-03-16T02:37:27;100002.88;;;5.21;51.48
52855;BME280;38719;51.418;7.286;2023-03-16T02:39:59;99998.38;;;5.26;51.27
52855;BME280;38719;51.418;7.286;2023-03-16T02:42:27;100000.13;;;5.27;51.14
52855;BME280;38719;51.418;7.286;2023-03-16T02:44:58;99995.81;;;5.23;51.18
52855;BME280;38719;51.418;7.286;2023-03-16T02:47:31;99990.59;;;5.20;51.69
52855;BME280;38719;51.418;7.286;2023-03-16T02:50:00;99992.13;;;5.30;50.96
52855;BME280;38719;51.418;7.286;2023-03-16T02:52:32;99990.44;;;5.27;51.23
52855;BME280;38719;51.418;7.286;2023-03-16T02:55:00;99994.34;;;5.09;51.93
52855;BME280;38719;51.418;7.286;2023-03-16T02:57:28;100001.00;;;5.26;51.33
52855;BME280;38719;51.418;7.286;2023-03-16T02:59:58;99998.13;;;5.37;51.50
52855;BME280;38719;51.418;7.286;2023-03-16T03:02:26;99998.47;;;5.23;51.65
52855;BME280;38719;51.418;7.286;2023-03-16T03:04:53;99989.56;;;5.27;51.39
52855;BME280;38719;51.418;7.286;2023-03-16T03:07:21;99988.38;;;5.40;51.95
52855;BME280;38719;51.418;7.286;2023-03-16T03:09:57;99981.34;;;5.39;51.47
52855;BME280;38719;51.418;7.286;2023-03-16T03:12:24;99984.03;;;5.38;51.44
52855;BME280;38719;51.418;7.286;2023-03-16T03:14:52;99972.19;;;5.16;52.14
52855;BME280;38719;51.418;7.286;2023-03-16T03:17:21;99967.03;;;5.10;52.11
52855;BME280;38719;51.418;7.286;2023-03-16T03:19:55;99965.88;;;5.24;51.79
52855;BME280;38719;51.418;7.286;2023-03-16T03:22:23;99969.38;;;5.24;52.35
52855;BME280;38719;51.418;7.286;2023-03-16T03:24:51;99974.56;;;5.29;52.31
52855;BME280;38719;51.418;7.286;2023-03-16T03:27:19;99979.66;;;5.37;52.04
52855;BME280;38719;51.418;7.286;2023-03-16T03:29:47;99981.28;;;5.42;51.43
52855;BME280;38719;51.418;7.286;2023-03-16T03:32:15;99975.25;;;5.37;51.54
52855;BME280;38719;51.418;7.286;2023-03-16T03:34:44;99978.84;;;5.33;51.50
52855;BME280;38719;51.418;7.286;2023-03-16T03:37:11;99964.97;;;5.25;51.94
52855;BME280;38719;51.418;7.286;2023-03-16T03:39:39;99956.41;;;5.13;52.65
52855;BME280;38719;51.418;7.286;2023-03-16T03:42:06;99961.72;;;5.12;52.48
52855;BME280;38719;51.418;7.286;2023-03-16T03:44:34;99965.13;;;5.19;51.90
52855;BME280;38719;51.418;7.286;2023-03-16T03:47:02;99952.00;;;5.14;52.09
52855;BME280;38719;51.418;7.286;2023-03-16T03:49:30;99959.69;;;5.23;51.82
52855;BME280;38719;51.418;7.286;2023-03-16T03:51:59;99956.06;;;5.29;51.68
52855;BME280;38719;51.418;7.286;2023-03-16T03:54:30;99964.94;;;5.26;51.72
52855;BME280;38719;51.418;7.286;2023-03-16T03:56:57;99959.84;;;5.17;51.71
52855;BME280;38719;51.418;7.286;2023-03-16T03:59:25;99961.63;;;5.16;52.09
52855;BME280;38719;51.418;7.286;2023-03-16T04:01:52;99949.94;;;5.28;52.02
52855;BME280;38719;51.418;7.286;2023-03-16T04:04:20;99956.97;;;5.28;51.75
52855;BME280;38719;51.418;7.286;2023-03-16T04:06:47;99953.13;;;5.41;51.93
52855;BME280;38719;51.418;7.286;2023-03-16T04:09:17;99955.78;;;5.41;51.96
52855;BME280;38719;51.418;7.286;2023-03-16T04:11:45;99950.34;;;5.47;51.69
52855;BME280;38719;51.418;7.286;2023-03-16T04:14:12;99945.81;;;5.53;50.85
52855;BME280;38719;51.418;7.286;2023-03-16T04:16:40;99938.94;;;5.45;51.53
52855;BME280;38719;51.418;7.286;2023-03-16T04:19:09;99944.16;;;5.48;51.29
52855;BME280;38719;51.418;7.286;2023-03-16T04:21:37;99939.63;;;5.54;51.25
52855;BME280;38719;51.418;7.286;2023-03-16T04:24:05;99931.81;;;5.49;51.42
52855;BME280;38719;51.418;7.286;2023-03-16T04:26:34;99925.41;;;5.22;52.01
52855;BME280;38719;51.418;7.286;2023-03-16T04:29:01;99916.25;;;5.37;52.03
52855;BME280;38719;51.418;7.286;2023-03-16T04:31:29;99908.34;;;5.37;51.78
52855;BME280;38719;51.418;7.286;2023-03-16T04:33:56;99904.91;;;5.35;52.42
52855;BME280;38719;51.418;7.286;2023-03-16T04:36:24;99907.19;;;5.48;51.89
52855;BME280;38719;51.418;7.286;2023-03-16T04:38:51;99905.44;;;5.47;51.88
52855;BME280;38719;51.418;7.286;2023-03-16T04:41:19;99905.56;;;5.43;52.06
52855;BME280;38719;51.418;7.286;2023-03-16T04:43:48;99895.47;;;5.23;52.50
52855;BME280;38719;51.418;7.286;2023-03-16T04:46:15;99890.09;;;5.27;52.58
52855;BME280;38719;51.418;7.286;2023-03-16T04:48:43;99888.56;;;5.19;53.08
52855;BME280;38719;51.418;7.286;2023-03-16T04:51:10;99880.59;;;5.20;52.99
52855;BME280;38719;51.418;7.286;2023-03-16T04:53:38;99887.16;;;5.02;53.36
52855;BME280;38719;51.418;7.286;2023-03-16T04:56:06;99880.00;;;5.07;53.72
52855;BME280;38719;51.418;7.286;2023-03-16T04:58:34;99892.56;;;4.96;53.82
52855;BME280;38719;51.418;7.286;2023-03-16T05:01:03;99892.56;;;4.96;54.16
52855;BME280;38719;51.418;7.286;2023-03-16T05:03:30;99892.28;;;5.08;53.54
52855;BME280;38719;51.418;7.286;2023-03-16T05:06:00;99890.19;;;5.23;53.73
52855;BME280;38719;51.418;7.286;2023-03-16T05:08:27;99894.78;;;5.14;53.81
52855;BME280;38719;51.418;7.286;2023-03-16T05:10:55;99886.06;;;5.12;54.20
52855;BME280;38719;51.418;7.286;2023-03-16T05:13:23;99891.03;;;5.25;54.01
52855;BME280;38719;51.418;7.286;2023-03-16T05:15:50;99890.31;;;5.18;53.93
52855;BME280;38719;51.418;7.286;2023-03-16T05:18:21;99886.56;;;5.28;54.33
52855;BME280;38719;51.418;7.286;2023-03-16T05:20:49;99891.66;;;5.36;53.95
52855;BME280;38719;51.418;7.286;2023-03-16T05:23:17;99887.31;;;5.32;53.74
52855;BME280;38719;51.418;7.286;2023-03-16T05:25:45;99885.56;;;5.32;54.22
52855;BME280;38719;51.418;7.286;2023-03-16T05:28:12;99879.50;;;5.29;54.39
52855;BME280;38719;51.418;7.286;2023-03-16T05:30:40;99869.22;;;5.16;54.84
52855;BME280;38719;51.418;7.286;2023-03-16T05:33:08;99870.13;;;5.15;54.85
52855;BME280;38719;51.418;7.286;2023-03-16T05:35:37;99866.50;;;5.20;54.49
52855;BME280;38719;51.418;7.286;2023-03-16T05:38:04;99875.00;;;5.32;54.79
52855;BME280;38719;51.418;7.286;2023-03-16T05:40:32;99870.88;;;5.21;54.33
52855;BME280;38719;51.418;7.286;2023-03-16T05:43:00;99878.75;;;5.22;54.20
52855;BME280;38719;51.418;7.286;2023-03-16T05:45:27;99881.13;;;5.33;54.00
52855;BME280;38719;51.418;7.286;2023-03-16T05:47:55;99879.41;;;5.32;54.09
52855;BME280;38719;51.418;7.286;2023-03-16T05:50:22;99881.09;;;5.36;54.26
52855;BME280;38719;51.418;7.286;2023-03-16T05:52:51;99884.66;;;5.33;53.83
52855;BME280;38719;51.418;7.286;2023-03-16T05:55:19;99891.84;;;5.27;53.98
52855;BME280;38719;51.418;7.286;2023-03-16T05:57:46;99891.56;;;5.39;54.27
52855;BME280;38719;51.418;7.286;2023-03-16T06:00:15;99903.94;;;5.37;53.98
52855;BME280;38719;51.418;7.286;2023-03-16T06:02:46;99902.06;;;5.42;53.79
52855;BME280;38719;51.418;7.286;2023-03-16T06:05:14;99908.34;;;5.37;54.36
52855;BME280;38719;51.418;7.286;2023-03-16T06:07:42;99897.53;;;5.47;54.04
52855;BME280;38719;51.418;7.286;2023-03-16T06:10:12;99898.38;;;5.48;53.80
52855;BME280;38719;51.418;7.286;2023-03-16T06:12:40;99897.47;;;5.49;53.86
52855;BME280;38719;51.418;7.286;2023-03-16T06:15:09;99900.22;;;5.44;54.10
52855;BME280;38719;51.418;7.286;2023-03-16T06:17:38;99896.94;;;5.36;54.28
52855;BME280;38719;51.418;7.286;2023-03-16T06:20:08;99894.19;;;5.41;53.96
52855;BME280;38719;51.418;7.286;2023-03-16T06:22:37;99899.38;;;5.44;53.93
52855;BME280;38719;51.418;7.286;2023-03-16T06:25:06;99905.44;;;5.47;53.96
52855;BME280;38719;51.418;7.286;2023-03-16T06:27:36;99903.50;;;5.54;53.80
52855;BME280;38719;51.418;7.286;2023-03-16T06:30:05;99902.59;;;5.55;54.06
52855;BME280;38719;51.418;7.286;2023-03-16T06:32:33;99898.13;;;5.59;53.49
52855;BME280;38719;51.418;7.286;2023-03-16T06:35:01;99899.06;;;5.56;53.75
52855;BME280;38719;51.418;7.286;2023-03-16T06:37:30;99900.00;;;5.54;53.75
52855;BME280;38719;51.418;7.286;2023-03-16T06:39:57;99905.03;;;5.64;53.79
52855;BME280;38719;51.418;7.286;2023-03-16T06:42:25;99892.97;;;5.53;53.75
52855;BME280;38719;51.418;7.286;2023-03-16T06:44:54;99902.66;;;5.54;53.65
52855;BME280;38719;51.418;7.286;2023-03-16T06:47:22;99897.28;;;5.57;53.98
52855;BME280;38719;51.418;7.286;2023-03-16T06:49:49;99897.56;;;5.46;54.15
52855;BME280;38719;51.418;7.286;2023-03-16T06:52:19;99908.47;;;5.68;53.87
52855;BME280;38719;51.418;7.286;2023-03-16T06:54:47;99902.75;;;5.84;53.56
52855;BME280;38719;51.418;7.286;2023-03-16T06:57:14;99911.53;;;5.86;53.33
52855;BME280;38719;51.418;7.286;2023-03-16T06:59:42;99905.84;;;6.03;52.94
52855;BME280;38719;51.418;7.286;2023-03-16T07:02:11;99902.06;;;6.11;52.90
52855;BME280;38719;51.418;7.286;2023-03-16T07:04:40;99900.16;;;6.17;52.37
52855;BME280;38719;51.418;7.286;2023-03-16T07:07:08;99904.84;;;6.07;52.16
52855;BME280;38719;51.418;7.286;2023-03-16T07:09:37;99914.88;;;5.92;52.72
52855;BME280;38719;51.418;7.286;2023-03-16T07:12:07;99911.28;;;5.95;52.70
52855;BME280;38719;51.418;7.286;2023-03-16T07:14:35;99899.63;;;6.04;52.87
52855;BME280;38719;51.418;7.286;2023-03-16T07:17:03;99902.97;;;6.10;52.45
52855;BME280;38719;51.418;7.286;2023-03-16T07:19:33;99902.06;;;6.11;52.39
52855;BME280;38719;51.418;7.286;2023-03-16T07:22:00;99902.69;;;6.20;52.47
52855;BME280;38719;51.418;7.286;2023-03-16T07:24:29;99906.09;;;6.25;52.54
52855;BME280;38719;51.418;7.286;2023-03-16T07:26:58;99908.09;;;6.17;52.17
52855;BME280;38719;51.418;7.286;2023-03-16T07:29:25;99899.72;;;6.32;52.12
52855;BME280;38719;51.418;7.286;2023-03-16T07:31:53;99911.69;;;6.45;51.16
52855;BME280;38719;51.418;7.286;2023-03-16T07:34:21;99906.31;;;6.49;51.87
52855;BME280;38719;51.418;7.286;2023-03-16T07:36:49;99903.25;;;6.31;51.65
52855;BME280;38719;51.418;7.286;2023-03-16T07:39:18;99900.59;;;6.33;52.01
52855;BME280;38719;51.418;7.286;2023-03-16T07:41:45;99916.03;;;6.48;51.73
52855;BME280;38719;51.418;7.286;2023-03-16T07:44:13;99915.28;;;6.43;51.81
52855;BME280;38719;51.418;7.286;2023-03-16T07:46:40;99915.16;;;6.48;51.76
52855;BME280;38719;51.418;7.286;2023-03-16T07:49:08;99917.34;;;6.63;51.18
52855;BME280;38719;51.418;7.286;2023-03-16T07:51:37;99917.94;;;6.73;51.22
52855;BME280;38719;51.418;7.286;2023-03-16T07:54:06;99928.59;;;6.71;50.57
52855;BME280;38719;51.418;7.286;2023-03-16T07:56:34;99902.94;;;6.73;50.24
52855;BME280;38719;51.418;7.286;2023-03-16T07:59:14;99924.78;;;6.80;50.86
52855;BME280;38719;51.418;7.286;2023-03-16T08:01:42;99919.06;;;6.94;50.23
52855;BME280;38719;51.418;7.286;2023-03-16T08:04:09;99917.97;;;7.01;50.26
52855;BME280;38719;51.418;7.286;2023-03-16T08:06:37;99921.16;;;7.13;50.48
52855;BME280;38719;51.418;7.286;2023-03-16T08:09:07;99912.75;;;7.00;50.05
52855;BME280;38719;51.418;7.286;2023-03-16T08:11:34;99916.09;;;7.05;49.88
52855;BME280;38719;51.418;7.286;2023-03-16T08:14:02;99911.31;;;7.18;50.23
52855;BME280;38719;51.418;7.286;2023-03-16T08:16:30;99907.72;;;7.19;50.33
52855;BME280;38719;51.418;7.286;2023-03-16T08:18:58;99909.78;;;7.37;49.97
52855;BME280;38719;51.418;7.286;2023-03-16T08:21:26;99911.94;;;7.53;49.47
52855;BME280;38719;51.418;7.286;2023-03-16T08:23:55;99910.63;;;7.66;48.54
52855;BME280;38719;51.418;7.286;2023-03-16T08:26:24;99910.13;;;7.55;49.35
52855;BME280;38719;51.418;7.286;2023-03-16T08:28:52;99903.47;;;7.41;49.75
52855;BME280;38719;51.418;7.286;2023-03-16T08:31:20;99903.88;;;7.56;49.38
52855;BME280;38719;51.418;7.286;2023-03-16T08:33:48;99905.81;;;7.51;50.15
52855;BME280;38719;51.418;7.286;2023-03-16T08:36:17;99909.34;;;7.51;49.35
52855;BME280;38719;51.418;7.286;2023-03-16T08:38:46;99902.03;;;7.58;49.62
52855;BME280;38719;51.418;7.286;2023-03-16T08:41:33;99904.59;;;7.61;49.15
52855;BME280;38719;51.418;7.286;2023-03-16T08:44:01;99903.47;;;7.41;49.76
52855;BME280;38719;51.418;7.286;2023-03-16T08:46:28;99908.78;;;7.41;49.98
52855;BME280;38719;51.418;7.286;2023-03-16T08:48:57;99902.72;;;7.38;49.92
52855;BME280;38719;51.418;7.286;2023-03-16T08:51:24;99906.72;;;7.50;49.30
52855;BME280;38719;51.418;7.286;2023-03-16T08:53:53;99905.72;;;7.54;49.44
52855;BME280;38719;51.418;7.286;2023-03-16T08:56:20;99910.41;;;7.46;49.54
52855;BME280;38719;51.418;7.286;2023-03-16T08:58:50;99906.44;;;7.59;49.23
52855;BME280;38719;51.418;7.286;2023-03-16T09:01:18;99909.50;;;7.73;49.20
52855;BME280;38719;51.418;7.286;2023-03-16T09:03:46;99915.66;;;7.74;48.56
52855;BME280;38719;51.418;7.286;2023-03-16T09:06:15;99918.56;;;7.66;48.52
52855;BME280;38719;51.418;7.286;2023-03-16T09:08:43;99918.09;;;7.53;49.80
52855;BME280;38719;51.418;7.286;2023-03-16T09:11:14;99933.59;;;7.66;48.71
52855;BME280;38719;51.418;7.286;2023-03-16T09:13:42;99924.44;;;7.74;48.57
52855;BME280;38719;51.418;7.286;2023-03-16T09:16:13;99924.22;;;7.82;49.66
52855;BME280;38719;51.418;7.286;2023-03-16T09:18:41;99920.75;;;7.80;48.92
52855;BME280;38719;51.418;7.286;2023-03-16T09:21:10;99914.44;;;7.57;49.21
52855;BME280;38719;51.418;7.286;2023-03-16T09:23:39;99917.19;;;7.54;49.12
52855;BME280;38719;51.418;7.286;2023-03-16T09:26:08;99918.91;;;7.82;49.17
52855;BME280;38719;51.418;7.286;2023-03-16T09:28:38;99929.75;;;7.74;49.05
52855;BME280;38719;51.418;7.286;2023-03-16T09:31:07;99920.59;;;7.85;49.73
52855;BME280;38719;51.418;7.286;2023-03-16T09:33:36;99929.94;;;7.70;49.12
52855;BME280;38719;51.418;7.286;2023-03-16T09:36:05;99932.78;;;7.64;49.03
52855;BME280;38719;51.418;7.286;2023-03-16T09:38:32;99919.97;;;7.77;49.25
52855;BME280;38719;51.418;7.286;2023-03-16T09:41:02;99928.41;;;7.88;49.48
52855;BME280;38719;51.418;7.286;2023-03-16T09:43:53;99925.19;;;8.05;49.93
52855;BME280;38719;51.418;7.286;2023-03-16T09:46:26;99919.59;;;8.13;48.85
52855;BME280;38719;51.418;7.286;2023-03-16T09:48:56;99923.72;;;8.21;49.32
52855;BME280;38719;51.418;7.286;2023-03-16T09:51:34;99917.13;;;8.33;49.09
52855;BME280;38719;51.418;7.286;2023-03-16T09:54:13;99891.38;;;8.61;47.90
52855;BME280;38719;51.418;7.286;2023-03-16T09:56:44;99908.09;;;8.86;47.66
52855;BME280;38719;51.418;7.286;2023-03-16T09:59:14;99910.44;;;8.94;47.79
52855;BME280;38719;51.418;7.286;2023-03-16T10:01:52;99908.34;;;8.80;47.57
52855;BME280;38719;51.418;7.286;2023-03-16T10:04:36;99915.19;;;9.10;47.58
52855;BME280;38719;51.418;7.286;2023-03-16T10:07:18;99904.06;;;9.22;47.55
52855;BME280;38719;51.418;7.286;2023-03-16T10:09:55;99898.59;;;9.25;46.67
52855;BME280;38719;51.418;7.286;2023-03-16T10:12:29;99895.34;;;9.41;46.99
52855;BME280;38719;51.418;7.286;2023-03-16T10:15:02;99888.97;;;9.45;48.08
52855;BME280;38719;51.418;7.286;2023-03-16T10:17:36;99896.19;;;9.41;46.78
52855;BME280;38719;51.418;7.286;2023-03-16T10:20:10;99895.88;;;9.49;46.40
52855;BME280;38719;51.418;7.286;2023-03-16T10:22:44;99892.94;;;9.55;46.81
52855;BME280;38719;51.418;7.286;2023-03-16T10:25:19;99890.44;;;9.52;47.17
52855;BME280;38719;51.418;7.286;2023-03-16T10:27:49;99890.47;;;9.73;47.18
52855;BME280;38719;51.418;7.286;2023-03-16T10:30:20;99884.56;;;9.87;46.56
52855;BME280;38719;51.418;7.286;2023-03-16T10:32:50;99884.22;;;10.15;46.23
52855;BME280;38719;51.418;7.286;2023-03-16T10:35:30;99885.00;;;10.17;46.48
52855;BME280;38719;51.418;7.286;2023-03-16T10:38:01;99882.88;;;10.05;46.21
52855;BME280;38719;51.418;7.286;2023-03-16T10:40:30;99899.38;;;10.13;46.80
52855;BME280;38719;51.418;7.286;2023-03-16T10:43:04;99895.94;;;9.90;46.94
52855;BME280;38719;51.418;7.286;2023-03-16T10:45:34;99892.72;;;10.03;47.13
52855;BME280;38719;51.418;7.286;2023-03-16T10:48:06;99891.41;;;9.72;47.11
52855;BME280;38719;51.418;7.286;2023-03-16T10:50:36;99890.00;;;9.83;47.07
52855;BME280;38719;51.418;7.286;2023-03-16T10:53:03;99883.56;;;9.89;47.59
52855;BME280;38719;51.418;7.286;2023-03-16T10:55:40;99873.09;;;9.84;47.12
52855;BME280;38719;51.418;7.286;2023-03-16T10:58:08;99872.75;;;9.92;46.96
52855;BME280;38719;51.418;7.286;2023-03-16T11:00:41;99854.09;;;9.94;47.35
52855;BME280;38719;51.418;7.286;2023-03-16T11:03:20;99851.63;;;9.89;47.29
52855;BME280;38719;51.418;7.286;2023-03-16T11:05:57;99835.69;;;9.89;47.55
52855;BME280;38719;51.418;7.286;2023-03-16T11:08:27;99837.44;;;9.89;47.61
52855;BME280;38719;51.418;7.286;2023-03-16T11:10:59;99836.22;;;9.77;47.90
52855;BME280;38719;51.418;7.286;2023-03-16T11:13:31;99827.31;;;9.78;47.93
52855;BME280;38719;51.418;7.286;2023-03-16T11:16:02;99828.44;;;9.72;48.48
52855;BME280;38719;51.418;7.286;2023-03-16T11:18:36;99813.13;;;9.98;48.21
52855;BME280;38719;51.418;7.286;2023-03-16T11:21:12;99816.28;;;9.66;48.45
52855;BME280;38719;51.418;7.286;2023-03-16T11:23:51;99806.53;;;9.86;48.27
52855;BME280;38719;51.418;7.286;2023-03-16T11:26:23;99814.78;;;10.00;47.53
52855;BME280;38719;51.418;7.286;2023-03-16T11:28:56;99800.63;;;10.19;47.33
52855;BME280;38719;51.418;7.286;2023-03-16T11:31:36;99810.88;;;10.28;47.30
52855;BME280;38719;51.418;7.286;2023-03-16T11:34:13;99795.34;;;10.38;47.07
52855;BME280;38719;51.418;7.286;2023-03-16T11:36:48;99805.00;;;10.41;47.32
52855;BME280;38719;51.418;7.286;2023-03-16T11:39:32;99791.53;;;10.44;46.42
52855;BME280;38719;51.418;7.286;2023-03-16T11:42:15;99800.25;;;10.47;46.00
52855;BME280;38719;51.418;7.286;2023-03-16T11:44:50;99784.50;;;10.62;46.15
52855;BME280;38719;51.418;7.286;2023-03-16T11:47:53;99780.81;;;11.01;45.76
52855;BME280;38719;51.418;7.286;2023-03-16T11:50:27;99775.13;;;11.26;45.31
52855;BME280;38719;51.418;7.286;2023-03-16T11:53:07;99778.88;;;11.57;45.01
52855;BME280;38719;51.418;7.286;2023-03-16T11:55:42;99769.56;;;11.49;44.77
52855;BME280;38719;51.418;7.286;2023-03-16T11:58:24;99760.31;;;11.72;45.12
52855;BME280;38719;51.418;7.286;2023-03-16T12:01:00;99756.72;;;11.73;44.17
52855;BME280;38719;51.418;7.286;2023-03-16T12:03:48;99757.19;;;11.81;44.22
52855;BME280;38719;51.418;7.286;2023-03-16T12:06:32;99756.22;;;12.00;43.93
52855;BME280;38719;51.418;7.286;2023-03-16T12:09:26;99744.13;;;11.92;43.37
52855;BME280;38719;51.418;7.286;2023-03-16T12:12:03;99748.00;;;12.20;42.90
52855;BME280;38719;51.418;7.286;2023-03-16T12:14:39;99735.16;;;12.27;43.22
52855;BME280;38719;51.418;7.286;2023-03-16T12:17:12;99748.38;;;12.46;43.59
52855;BME280;38719;51.418;7.286;2023-03-16T12:19:44;99741.44;;;12.74;42.10
52855;BME280;38719;51.418;7.286;2023-03-16T12:22:18;99729.97;;;12.72;42.22
52855;BME280;38719;51.418;7.286;2023-03-16T12:24:49;99728.50;;;12.82;41.45
52855;BME280;38719;51.418;7.286;2023-03-16T12:27:19;99717.13;;;12.79;40.74
52855;BME280;38719;51.418;7.286;2023-03-16T12:29:57;99710.78;;;12.49;40.73
52855;BME280;38719;51.418;7.286;2023-03-16T12:32:37;99702.91;;;12.78;40.90
52855;BME280;38719;51.418;7.286;2023-03-16T12:35:18;99687.56;;;12.82;41.42
52855;BME280;38719;51.418;7.286;2023-03-16T12:37:57;99691.59;;;12.89;41.03
52855;BME280;38719;51.418;7.286;2023-03-16T12:40:32;99678.50;;;12.84;40.91
52855;BME280;38719;51.418;7.286;2023-03-16T12:43:14;99679.91;;;12.76;39.97
52855;BME280;38719;51.418;7.286;2023-03-16T12:45:49;99684.16;;;12.64;39.90
52855;BME280;38719;51.418;7.286;2023-03-16T12:48:23;99688.72;;;12.62;40.57
52855;BME280;38719;51.418;7.286;2023-03-16T12:50:55;99688.63;;;12.47;40.63
52855;BME280;38719;51.418;7.286;2023-03-16T12:53:26;99688.84;;;12.12;41.50
52855;BME280;38719;51.418;7.286;2023-03-16T12:55:55;99670.34;;;12.09;41.28
52855;BME280;38719;51.418;7.286;2023-03-16T12:58:24;99676.53;;;12.09;40.66
52855;BME280;38719;51.418;7.286;2023-03-16T13:00:55;99676.16;;;12.00;41.50
52855;BME280;38719;51.418;7.286;2023-03-16T13:03:25;99657.44;;;11.84;41.46
52855;BME280;38719;51.418;7.286;2023-03-16T13:05:56;99654.53;;;11.88;41.45
52855;BME280;38719;51.418;7.286;2023-03-16T13:08:25;99644.94;;;11.84;41.27
52855;BME280;38719;51.418;7.286;2023-03-16T13:11:04;99659.31;;;11.99;41.43
52855;BME280;38719;51.418;7.286;2023-03-16T13:13:32;99659.69;;;11.91;41.72
52855;BME280;38719;51.418;7.286;2023-03-16T13:16:04;99645.66;;;11.88;41.27
52855;BME280;38719;51.418;7.286;2023-03-16T13:18:37;99644.56;;;11.92;41.47
52855;BME280;38719;51.418;7.286;2023-03-16T13:21:16;99630.38;;;12.07;40.51
52855;BME280;38719;51.418;7.286;2023-03-16T13:23:56;99637.19;;;12.13;41.46